Steptoe Valley WMA, Nevada Weather observations

Data are for 10 minute period ending at time listed.
 Day   Time   Solar   Ave.   Ave.  Ave.  Vector  Max.   Baro.   Total    
  of    of     Rad.   Air    Rel.  Wind   Wind   Wind  Press.  Precip.   
Year   Day            Temp.  Hum.  Speed  Dir.   Gust                    
2016   (PST)  Kw/m2    F      %     mph   deg.    mph    mb.     in.     
-------------------------------------------------------------------------
 269    0:00   0.00   28.0    89    2.5   164     4.2   813.1    0.00 
 269    0:10   0.00   30.0    91    1.7   158     3.1   813.0    0.00 
 269    0:20   0.00   30.5    89    1.0   168     2.3   813.0    0.00 
 269    0:30   0.00   30.0    90    1.0   171     2.3   813.0    0.00 
 269    0:40   0.00   30.8    89    1.8   177     2.6   813.0    0.00 
 269    0:50   0.00   29.2    88    1.8   164     3.3   813.2    0.00 
 269    1:00   0.00   30.5    88    2.3   160     5.3   813.1    0.00 
 269    1:10   0.00   27.8    88    0.6   147     2.3   813.2    0.00 
 269    1:20   0.00   27.7    89    1.2   183     2.5   813.2    0.00 
 269    1:30   0.00   28.1    90    1.7   137     3.1   813.3    0.00 
 269    1:40   0.00   29.9    91    2.2   152     4.6   813.2    0.00 
 269    1:50   0.00   29.8    88    1.4   204     3.8   813.2    0.00 
 269    2:00   0.00   28.6    88    0.5   151     2.9   813.2    0.00 
 269    2:10   0.00   27.3    87    1.8   174     3.5   813.2    0.00 
 269    2:20   0.00   27.0    90    1.9   117     6.2   813.1    0.00 
 269    2:30   0.00   27.1    89    1.9   157     4.7   813.1    0.00 
 269    2:40   0.00   27.7    90    1.4   167     3.3   813.1    0.00 
 269    2:50   0.00   26.7    88    2.1   161     4.7   813.1    0.00 
 269    3:00   0.00   26.8    90    2.0   158     4.4   813.0    0.00 
 269    3:10   0.00   26.1    90    1.1   146     2.6   813.1    0.00 
 269    3:20   0.00   26.3    90    1.8   157     3.9   813.1    0.00 
 269    3:30   0.00   26.9    91    1.4   171     3.1   813.1    0.00 
 269    3:40   0.00   26.6    90    1.5   163     2.6   813.3    0.00 
 269    3:50   0.00   26.1    91    2.6   148     4.8   813.3    0.00 
 269    4:00   0.00   26.6    91    3.2   170     6.3   813.3    0.00 
 269    4:10   0.00   28.9    92    4.2   171     7.4   813.4    0.00 
 269    4:20   0.00   29.5    90    2.0   174     4.0   813.5    0.00 
 269    4:30   0.00   29.6    89    1.7   180     5.3   813.7    0.00 
 269    4:40   0.00   28.7    88    2.6   170     4.0   813.7    0.00 
 269    4:50   0.00   26.8    88    1.6   160     3.2   813.8    0.00 
 269    5:00   0.00   26.9    90    2.6   149     4.5   813.7    0.00 
 269    5:10   0.00   26.3    90    0.4    32     1.8   813.9    0.00 
 269    5:20   0.00   26.1    90    1.7   163     2.8   813.9    0.00 
 269    5:30   0.00   25.5    91    1.4   156     2.4   814.0    0.00 
 269    5:40   0.00   26.4    91    1.9   154     3.5   814.0    0.00 
 269    5:50   0.01   27.5    92    2.2   151     3.8   814.0    0.00 
 269    6:00   0.01   28.1    90    1.1   164     2.9   814.0    0.00 
 269    6:10   0.01   26.2    89    0.7   147     2.8   814.2    0.00 
 269    6:20   0.02   26.0    90    0.5   354     1.8   814.2    0.00 
 269    6:30   0.05   27.3    91    0.5    85     1.7   814.3    0.00 
 269    6:40   0.19   30.7    91    0.3   128     1.1   814.3    0.00 
 269    6:50   0.23   34.2    85    1.1   133     2.2   814.4    0.00 
 269    7:00   0.24   35.2    83    2.1   136     3.1   814.5    0.00 
 269    7:10   0.27   37.9    84    2.0   154     3.6   814.5    0.00 
 269    7:20   0.30   41.0    77    1.7   136     2.6   814.5    0.00 
 269    7:30   0.33   44.0    66    1.1    71     2.9   814.6    0.00 
 269    7:40   0.36   44.5    62    2.4    92     3.8   814.7    0.00 
 269    7:50   0.40   46.7    59    1.1    53     2.7   814.8    0.00 
 269    8:00   0.43   47.1    56    3.1    16     5.3   814.8    0.00 
 269    8:10   0.46   48.3    54    1.1   333     5.3   814.8    0.00 
 269    8:20   0.49   49.5    52    3.1   356     7.0   814.8    0.00 
 269    8:30   0.52   49.9    51    3.9   334     6.2   814.8    0.00 
 269    8:40   0.54   50.9    48    4.5   359     7.1   814.8    0.00 
 269    8:50   0.57   51.7    46    4.9   352     9.3   814.7    0.00 
 269    9:00   0.60   53.4    43    6.0   359    13.6   814.6    0.00 
 269    9:10   0.62   54.4    38    9.8   342    16.7   814.5    0.00 
 269    9:20   0.64   55.1    36   11.5   340    17.8   814.3    0.00 
 269    9:30   0.66   55.8    36    9.9   355    14.8   814.2    0.00 
 269    9:40   0.68   56.6    36   10.8   349    16.1   814.2    0.00 
 269    9:50   0.70   57.0    34   10.4   353    16.1   814.1    0.00 
 269   10:00   0.72   57.5    34   10.0   355    17.4   814.2    0.00 
 269   10:10   0.73   58.5    36    8.1   348    13.9   814.2    0.00 
 269   10:20   0.74   59.7    35    8.9   331    13.9   814.0    0.00 
 269   10:30   0.76   60.4    33    9.4   336    15.3   813.9    0.00 
 269   10:40   0.77   61.1    30    8.7   340    18.0   813.8    0.00 
 269   10:50   0.78   61.9    28    8.1   337    13.9   813.7    0.00 
 269   11:00   0.78   62.2    28    8.7   327    15.6   813.8    0.00 
 269   11:10   0.79   62.7    27    9.4   334    15.2   813.7    0.00 
 269   11:20   0.79   63.5    26   11.3   335    17.5   813.7    0.00 
 269   11:30   0.79   63.7    26   11.9   338    18.1   813.6    0.00 
 269   11:40   0.79   64.3    26   11.8   342    17.9   813.5    0.00 
 269   11:50   0.79   64.9    25   12.0   345    19.7   813.5    0.00 
 269   12:00   0.79   65.3    24   12.3   345    18.5   813.4    0.00 
 269   12:10   0.78   65.1    24   12.9   340    21.5   813.3    0.00 
 269   12:20   0.77   65.6    24   12.7   340    18.3   813.3    0.00 
 269   12:30   0.76   65.6    23   12.9   342    20.9   813.3    0.00 
 269   12:40   0.75   66.2    23   12.3   344    19.6   813.3    0.00 
 269   12:50   0.74   66.7    23   12.3   345    17.9   813.3    0.00 
 269   13:00   0.73   67.2    23   12.9   346    21.6   813.2    0.00 
 269   13:10   0.71   67.0    23   12.5   338    19.2   813.2    0.00 
 269   13:20   0.70   67.5    22   12.1   346    16.9   813.1    0.00 
 269   13:30   0.68   68.0    22   11.9   326    17.3   813.0    0.00 
 269   13:40   0.66   68.0    22   10.5   331    15.9   812.9    0.00 
 269   13:50   0.64   68.3    22   12.1   330    18.3   812.9    0.00 
 269   14:00   0.62   68.3    22   11.2   340    17.2   812.8    0.00 
 269   14:10   0.59   68.4    22   12.8   341    18.0   812.8    0.00 
 269   14:20   0.57   68.7    22   12.6   333    18.9   812.8    0.00 
 269   14:30   0.54   68.3    22   13.0   330    19.0   812.8    0.00 
 269   14:40   0.52   68.4    22   12.9   332    18.0   812.8    0.00 
 269   14:50   0.49   68.6    21   13.4   333    20.0   812.8    0.00 
 269   15:00   0.46   68.3    21   13.4   343    20.9   812.7    0.00 
 269   15:10   0.43   68.3    21   13.2   349    18.8   812.7    0.00 
 269   15:20   0.40   68.3    21   13.4   342    19.6   812.6    0.00 
 269   15:30   0.37   67.9    22   13.4   346    22.6   812.6    0.00 
 269   15:40   0.34   67.7    21   12.6   349    19.1   812.5    0.00 
 269   15:50   0.31   67.7    22   11.5   342    18.3   812.4    0.00 
 269   16:00   0.27   67.3    22   11.6   344    17.2   812.3    0.00 
 269   16:10   0.24   66.8    22   11.7   342    17.0   812.3    0.00 
 269   16:20   0.21   66.2    23   12.8   340    19.0   812.2    0.00 
 269   16:30   0.18   65.8    22   13.3   345    20.5   812.2    0.00 
 269   16:40   0.15   65.0    22   13.5   349    20.2   812.1    0.00 
 269   16:50   0.12   64.3    23   12.5   346    20.8   812.1    0.00 
 269   17:00   0.09   63.8    22   12.6   348    22.1   812.2    0.00 
 269   17:10   0.07   62.5    25    9.3   343    14.7   812.2    0.00 
 269   17:20   0.02   60.4    27    7.8   338    11.2   812.2    0.00 
 269   17:30   0.01   57.3    31    5.1   329     9.2   812.2    0.00 
 269   17:40   0.01   53.7    36    2.3   334     4.3   812.2    0.00 
 269   17:50   0.00   51.3    40    0.4   342     1.9   812.2    0.00 
 269   18:00   0.00   50.1    44    0.6   174     1.5   812.3    0.00 
 269   18:10   0.00   49.5    44    0.6   148     1.5   812.4    0.00 
 269   18:20   0.00   49.4    44    0.2   298     1.8   812.5    0.00 
 269   18:30   0.00   50.2    41    0.4    31     2.0   812.7    0.00 
 269   18:40   0.00   50.2    41    0.5    19     1.5   812.8    0.00 
 269   18:50   0.00   49.5    42    1.2   326     4.2   812.9    0.00 
 269   19:00   0.00   46.7    45    0.4    46     2.0   813.0    0.00 
 269   19:10   0.00   47.2    45    1.1    42     3.6   813.2    0.00 
 269   19:20   0.00   46.2    48    1.1   214     3.3   813.3    0.00 
 269   19:30   0.00   44.7    50    1.4   355     3.0   813.4    0.00 
 269   19:40   0.00   44.9    50    0.6   129     1.8   813.6    0.00 
 269   19:50   0.00   44.8    51    2.1     9     5.6   813.6    0.00 
 269   20:00   0.00   45.2    51    3.4    23     6.4   813.6    0.00 
 269   20:10   0.00   46.1    49    1.9    78     5.3   813.8    0.00 
 269   20:20   0.00   44.7    52    1.0   156     2.4   813.8    0.00 
 269   20:30   0.00   42.7    56    0.2   124     1.6   813.7    0.00 
 269   20:40   0.00   40.8    62    2.6   164     3.4   813.7    0.00 
 269   20:50   0.00   43.3    54    1.9   170     2.9   813.7    0.00 
 269   21:00   0.00   43.1    54    0.1   177     1.1   813.7    0.00 
 269   21:10   0.00   45.4    47    1.5    57     4.6   813.7    0.00 
 269   21:20   0.00   43.7    53    2.0   156     5.0   813.7    0.00 
 269   21:30   0.00   42.4    55    2.7   138     5.3   813.7    0.00 
 269   21:40   0.00   42.9    54    2.6   113     5.8   813.7    0.00 
 269   21:50   0.00   40.7    61    2.4   170     3.8   813.8    0.00 
 269   22:00   0.00   39.5    64    2.6   129     6.9   813.9    0.00 
 269   22:10   0.00   39.5    65    4.2   160     7.1   814.0    0.00 
 269   22:20   0.00   40.6    60    3.2   117     6.8   814.0    0.00 
 269   22:30   0.00   41.1    60    3.9   138     6.5   814.0    0.00 
 269   22:40   0.00   39.6    63    3.0   165     4.6   814.1    0.00 
 269   22:50   0.00   40.7    60    4.3   141     6.9   814.1    0.00 

Return to Steptoe Valley WMA graphs page.


Western Regional Climate Center,wrcc@dri.edu